LFMK/CCF METAR and TAF weather

Enter ICAO airport designator
Station Type Date Time Source
LFMK METAR 2022/05/26 05:30 UTC NOAA

LFMK 260530Z AUTO 28011KT 9999 BKN020 BKN052 BKN064 14/11 Q1026 TEMPO 29020G30KT


Station Type Date Time Source
LFMK Decoded METAR 2022/05/26 05:30 UTC NOAA

Carcassonne, France (LFMK) 43-13N 002-19E 130M
May 26, 2022 - 01:30 AM EDT / 2022.05.26 0530 UTC
Wind: from the W (280 degrees) at 13 MPH (11 KT):0
Visibility: greater than 7 mile(s):0
Sky conditions: mostly cloudy
Temperature: 57 F (14 C)
Dew Point: 51 F (11 C)
Relative Humidity: 82%
Pressure (altimeter): 30.30 in. Hg (1026 hPa)
ob: LFMK 260530Z AUTO 28011KT 9999 BKN020 BKN052 BKN064 14/11 Q1026 TEMPO 29020G30KT
cycle: 5

Station Type Date Time Source
LFMK TAF 2022/05/26 03:43 UTC NOAA

TAF LFMK 260200Z 2603/2703 29015G25KT 9999 SCT070
BECMG 2603/2605 BKN045
TEMPO 2604/2617 29020G30KT
TEMPO 2604/2607 BKN016

Example: see airport list